sensor_id;sensor_type;location;lat;lon;timestamp;P1;durP1;ratioP1;P2;durP2;ratioP2
15667;SDS011;7934;48.710;9.024;2023-08-31T00:01:00;5.20;;;3.50;;
15667;SDS011;7934;48.710;9.024;2023-08-31T00:03:30;3.77;;;3.20;;
15667;SDS011;7934;48.710;9.024;2023-08-31T00:05:57;3.67;;;3.33;;
15667;SDS011;7934;48.710;9.024;2023-08-31T00:08:24;4.43;;;3.33;;
15667;SDS011;7934;48.710;9.024;2023-08-31T00:10:55;5.73;;;3.43;;
15667;SDS011;7934;48.710;9.024;2023-08-31T00:13:23;5.50;;;3.43;;
15667;SDS011;7934;48.710;9.024;2023-08-31T00:15:53;7.37;;;3.87;;
15667;SDS011;7934;48.710;9.024;2023-08-31T00:18:20;6.17;;;3.67;;
15667;SDS011;7934;48.710;9.024;2023-08-31T00:20:49;4.90;;;3.67;;
15667;SDS011;7934;48.710;9.024;2023-08-31T00:23:16;3.70;;;3.43;;
15667;SDS011;7934;48.710;9.024;2023-08-31T00:25:44;5.77;;;3.87;;
15667;SDS011;7934;48.710;9.024;2023-08-31T00:28:12;3.70;;;3.40;;
15667;SDS011;7934;48.710;9.024;2023-08-31T00:30:40;3.83;;;3.50;;
15667;SDS011;7934;48.710;9.024;2023-08-31T00:33:09;3.43;;;3.23;;
15667;SDS011;7934;48.710;9.024;2023-08-31T00:35:36;6.80;;;3.70;;
15667;SDS011;7934;48.710;9.024;2023-08-31T00:38:10;4.97;;;3.40;;
15667;SDS011;7934;48.710;9.024;2023-08-31T00:40:40;9.67;;;3.50;;
15667;SDS011;7934;48.710;9.024;2023-08-31T00:43:09;6.17;;;3.57;;
15667;SDS011;7934;48.710;9.024;2023-08-31T00:45:36;3.30;;;3.10;;
15667;SDS011;7934;48.710;9.024;2023-08-31T00:48:05;3.40;;;3.13;;
15667;SDS011;7934;48.710;9.024;2023-08-31T00:50:33;3.40;;;3.10;;
15667;SDS011;7934;48.710;9.024;2023-08-31T00:53:01;3.57;;;3.37;;
15667;SDS011;7934;48.710;9.024;2023-08-31T00:55:30;8.03;;;3.40;;
15667;SDS011;7934;48.710;9.024;2023-08-31T00:57:58;5.53;;;3.30;;
15667;SDS011;7934;48.710;9.024;2023-08-31T01:00:26;4.50;;;3.90;;
15667;SDS011;7934;48.710;9.024;2023-08-31T01:02:59;5.67;;;3.37;;
15667;SDS011;7934;48.710;9.024;2023-08-31T01:05:29;6.17;;;3.57;;
15667;SDS011;7934;48.710;9.024;2023-08-31T01:08:02;7.43;;;3.53;;
15667;SDS011;7934;48.710;9.024;2023-08-31T01:10:34;3.87;;;3.53;;
15667;SDS011;7934;48.710;9.024;2023-08-31T01:13:05;5.80;;;3.43;;
15667;SDS011;7934;48.710;9.024;2023-08-31T01:15:36;9.20;;;4.10;;
15667;SDS011;7934;48.710;9.024;2023-08-31T01:18:05;3.93;;;3.63;;
15667;SDS011;7934;48.710;9.024;2023-08-31T01:20:34;4.00;;;3.70;;
15667;SDS011;7934;48.710;9.024;2023-08-31T01:23:03;4.67;;;3.33;;
15667;SDS011;7934;48.710;9.024;2023-08-31T01:25:35;6.90;;;4.00;;
15667;SDS011;7934;48.710;9.024;2023-08-31T01:28:02;4.70;;;3.83;;
15667;SDS011;7934;48.710;9.024;2023-08-31T01:30:30;4.03;;;3.73;;
15667;SDS011;7934;48.710;9.024;2023-08-31T01:32:57;6.30;;;4.07;;
15667;SDS011;7934;48.710;9.024;2023-08-31T01:35:24;11.27;;;4.00;;
15667;SDS011;7934;48.710;9.024;2023-08-31T01:37:53;9.17;;;4.20;;
15667;SDS011;7934;48.710;9.024;2023-08-31T01:40:22;8.33;;;3.90;;
15667;SDS011;7934;48.710;9.024;2023-08-31T01:42:51;6.23;;;3.80;;
15667;SDS011;7934;48.710;9.024;2023-08-31T01:45:20;5.90;;;3.97;;
15667;SDS011;7934;48.710;9.024;2023-08-31T01:47:47;3.80;;;3.50;;
15667;SDS011;7934;48.710;9.024;2023-08-31T01:50:15;7.90;;;3.50;;
15667;SDS011;7934;48.710;9.024;2023-08-31T01:52:42;7.20;;;3.73;;
15667;SDS011;7934;48.710;9.024;2023-08-31T01:55:09;4.00;;;3.70;;
15667;SDS011;7934;48.710;9.024;2023-08-31T01:57:38;6.97;;;4.10;;
15667;SDS011;7934;48.710;9.024;2023-08-31T02:00:07;6.83;;;4.23;;
15667;SDS011;7934;48.710;9.024;2023-08-31T02:02:35;5.23;;;4.00;;
15667;SDS011;7934;48.710;9.024;2023-08-31T02:05:02;5.83;;;4.13;;
15667;SDS011;7934;48.710;9.024;2023-08-31T02:07:29;5.90;;;3.77;;
15667;SDS011;7934;48.710;9.024;2023-08-31T02:09:57;4.77;;;3.87;;
15667;SDS011;7934;48.710;9.024;2023-08-31T02:12:38;5.83;;;3.60;;
15667;SDS011;7934;48.710;9.024;2023-08-31T02:15:07;4.57;;;3.53;;
15667;SDS011;7934;48.710;9.024;2023-08-31T02:17:34;9.77;;;3.70;;
15667;SDS011;7934;48.710;9.024;2023-08-31T02:20:02;4.27;;;3.87;;
15667;SDS011;7934;48.710;9.024;2023-08-31T02:22:33;4.17;;;3.77;;
15667;SDS011;7934;48.710;9.024;2023-08-31T02:25:00;4.80;;;3.40;;
15667;SDS011;7934;48.710;9.024;2023-08-31T02:27:27;9.73;;;4.27;;
15667;SDS011;7934;48.710;9.024;2023-08-31T02:29:54;4.73;;;4.10;;
15667;SDS011;7934;48.710;9.024;2023-08-31T02:32:23;4.03;;;3.60;;
15667;SDS011;7934;48.710;9.024;2023-08-31T02:34:50;5.43;;;4.23;;
15667;SDS011;7934;48.710;9.024;2023-08-31T02:37:18;4.10;;;3.80;;
15667;SDS011;7934;48.710;9.024;2023-08-31T02:39:45;3.87;;;3.57;;
15667;SDS011;7934;48.710;9.024;2023-08-31T02:42:13;5.73;;;3.60;;
15667;SDS011;7934;48.710;9.024;2023-08-31T02:44:40;6.40;;;4.17;;
15667;SDS011;7934;48.710;9.024;2023-08-31T02:47:07;5.73;;;4.20;;
15667;SDS011;7934;48.710;9.024;2023-08-31T02:49:36;8.40;;;4.27;;
15667;SDS011;7934;48.710;9.024;2023-08-31T02:52:03;4.47;;;4.07;;
15667;SDS011;7934;48.710;9.024;2023-08-31T02:54:31;6.57;;;3.80;;
15667;SDS011;7934;48.710;9.024;2023-08-31T02:56:58;4.60;;;4.20;;
15667;SDS011;7934;48.710;9.024;2023-08-31T02:59:25;6.07;;;4.03;;
15667;SDS011;7934;48.710;9.024;2023-08-31T03:01:52;5.47;;;3.83;;
15667;SDS011;7934;48.710;9.024;2023-08-31T03:04:19;6.23;;;4.23;;
15667;SDS011;7934;48.710;9.024;2023-08-31T03:06:48;7.83;;;4.47;;
15667;SDS011;7934;48.710;9.024;2023-08-31T03:09:15;4.40;;;3.77;;
15667;SDS011;7934;48.710;9.024;2023-08-31T03:11:43;9.00;;;4.47;;
15667;SDS011;7934;48.710;9.024;2023-08-31T03:14:10;7.27;;;4.20;;
15667;SDS011;7934;48.710;9.024;2023-08-31T03:16:37;6.43;;;4.53;;
15667;SDS011;7934;48.710;9.024;2023-08-31T03:19:04;4.83;;;4.43;;
15667;SDS011;7934;48.710;9.024;2023-08-31T03:21:32;5.20;;;4.60;;
15667;SDS011;7934;48.710;9.024;2023-08-31T03:24:00;5.57;;;4.40;;
15667;SDS011;7934;48.710;9.024;2023-08-31T03:26:27;7.73;;;4.27;;
15667;SDS011;7934;48.710;9.024;2023-08-31T03:28:55;7.53;;;4.60;;
15667;SDS011;7934;48.710;9.024;2023-08-31T03:31:22;5.87;;;4.40;;
15667;SDS011;7934;48.710;9.024;2023-08-31T03:33:50;9.37;;;4.47;;
15667;SDS011;7934;48.710;9.024;2023-08-31T03:36:17;5.00;;;4.13;;
15667;SDS011;7934;48.710;9.024;2023-08-31T03:38:44;6.80;;;4.90;;
15667;SDS011;7934;48.710;9.024;2023-08-31T03:41:13;5.67;;;4.67;;
15667;SDS011;7934;48.710;9.024;2023-08-31T03:43:40;6.13;;;4.77;;
15667;SDS011;7934;48.710;9.024;2023-08-31T03:46:07;4.93;;;4.27;;
15667;SDS011;7934;48.710;9.024;2023-08-31T03:48:34;5.53;;;4.80;;
15667;SDS011;7934;48.710;9.024;2023-08-31T03:51:02;20.87;;;5.53;;
15667;SDS011;7934;48.710;9.024;2023-08-31T03:53:29;8.07;;;4.63;;
15667;SDS011;7934;48.710;9.024;2023-08-31T03:55:56;7.53;;;4.60;;
15667;SDS011;7934;48.710;9.024;2023-08-31T03:58:24;6.10;;;4.97;;
15667;SDS011;7934;48.710;9.024;2023-08-31T04:00:52;8.67;;;4.60;;
15667;SDS011;7934;48.710;9.024;2023-08-31T04:03:19;9.87;;;4.77;;
15667;SDS011;7934;48.710;9.024;2023-08-31T04:05:47;8.53;;;4.60;;
15667;SDS011;7934;48.710;9.024;2023-08-31T04:08:14;5.13;;;4.30;;
15667;SDS011;7934;48.710;9.024;2023-08-31T04:10:41;6.00;;;4.90;;
15667;SDS011;7934;48.710;9.024;2023-08-31T04:13:08;6.23;;;4.70;;
15667;SDS011;7934;48.710;9.024;2023-08-31T04:15:36;5.70;;;4.40;;
15667;SDS011;7934;48.710;9.024;2023-08-31T04:18:04;8.13;;;4.70;;
15667;SDS011;7934;48.710;9.024;2023-08-31T04:20:32;10.40;;;4.93;;
15667;SDS011;7934;48.710;9.024;2023-08-31T04:22:59;9.73;;;5.70;;
15667;SDS011;7934;48.710;9.024;2023-08-31T04:25:28;7.57;;;5.30;;
15667;SDS011;7934;48.710;9.024;2023-08-31T04:27:56;8.97;;;4.83;;
15667;SDS011;7934;48.710;9.024;2023-08-31T04:30:23;6.23;;;4.80;;
15667;SDS011;7934;48.710;9.024;2023-08-31T04:32:52;12.13;;;4.97;;
15667;SDS011;7934;48.710;9.024;2023-08-31T04:35:20;5.43;;;4.93;;
15667;SDS011;7934;48.710;9.024;2023-08-31T04:37:47;7.43;;;5.00;;
15667;SDS011;7934;48.710;9.024;2023-08-31T04:40:14;8.47;;;5.50;;
15667;SDS011;7934;48.710;9.024;2023-08-31T04:42:41;7.50;;;5.73;;
15667;SDS011;7934;48.710;9.024;2023-08-31T04:45:09;9.43;;;5.30;;
15667;SDS011;7934;48.710;9.024;2023-08-31T04:47:37;9.83;;;5.63;;
15667;SDS011;7934;48.710;9.024;2023-08-31T04:50:06;6.70;;;5.30;;
15667;SDS011;7934;48.710;9.024;2023-08-31T04:52:34;11.73;;;5.57;;
15667;SDS011;7934;48.710;9.024;2023-08-31T04:55:01;13.37;;;5.77;;
15667;SDS011;7934;48.710;9.024;2023-08-31T04:57:28;6.47;;;5.67;;
15667;SDS011;7934;48.710;9.024;2023-08-31T04:59:55;11.97;;;6.13;;
15667;SDS011;7934;48.710;9.024;2023-08-31T05:02:23;8.77;;;5.63;;
15667;SDS011;7934;48.710;9.024;2023-08-31T05:04:50;9.63;;;6.53;;
15667;SDS011;7934;48.710;9.024;2023-08-31T05:07:18;10.73;;;6.67;;
15667;SDS011;7934;48.710;9.024;2023-08-31T05:09:46;7.50;;;6.63;;
15667;SDS011;7934;48.710;9.024;2023-08-31T05:12:13;11.53;;;7.17;;
15667;SDS011;7934;48.710;9.024;2023-08-31T05:14:40;10.00;;;6.83;;
15667;SDS011;7934;48.710;9.024;2023-08-31T05:17:10;9.13;;;6.47;;
15667;SDS011;7934;48.710;9.024;2023-08-31T05:19:37;7.87;;;5.80;;
15667;SDS011;7934;48.710;9.024;2023-08-31T05:22:05;7.77;;;6.27;;
15667;SDS011;7934;48.710;9.024;2023-08-31T05:24:34;9.23;;;6.07;;
15667;SDS011;7934;48.710;9.024;2023-08-31T05:27:01;12.60;;;6.00;;
15667;SDS011;7934;48.710;9.024;2023-08-31T05:29:29;7.13;;;6.43;;
15667;SDS011;7934;48.710;9.024;2023-08-31T05:31:56;9.27;;;5.43;;
15667;SDS011;7934;48.710;9.024;2023-08-31T05:34:24;12.83;;;6.13;;
15667;SDS011;7934;48.710;9.024;2023-08-31T05:36:51;10.63;;;6.47;;
15667;SDS011;7934;48.710;9.024;2023-08-31T05:39:18;7.13;;;5.80;;
15667;SDS011;7934;48.710;9.024;2023-08-31T05:41:47;12.43;;;6.07;;
15667;SDS011;7934;48.710;9.024;2023-08-31T05:44:14;9.47;;;5.90;;
15667;SDS011;7934;48.710;9.024;2023-08-31T05:46:41;10.50;;;6.17;;
15667;SDS011;7934;48.710;9.024;2023-08-31T05:49:09;7.40;;;5.83;;
15667;SDS011;7934;48.710;9.024;2023-08-31T05:51:36;6.63;;;6.03;;
15667;SDS011;7934;48.710;9.024;2023-08-31T05:54:03;6.77;;;5.97;;
15667;SDS011;7934;48.710;9.024;2023-08-31T05:56:30;9.10;;;5.90;;
15667;SDS011;7934;48.710;9.024;2023-08-31T05:58:59;8.53;;;5.97;;
15667;SDS011;7934;48.710;9.024;2023-08-31T06:01:27;6.57;;;5.90;;
15667;SDS011;7934;48.710;9.024;2023-08-31T06:03:54;10.53;;;6.50;;
15667;SDS011;7934;48.710;9.024;2023-08-31T06:06:21;12.53;;;6.40;;
15667;SDS011;7934;48.710;9.024;2023-08-31T06:08:48;7.73;;;6.37;;
15667;SDS011;7934;48.710;9.024;2023-08-31T06:11:15;7.40;;;5.67;;
15667;SDS011;7934;48.710;9.024;2023-08-31T06:13:42;9.80;;;6.37;;
15667;SDS011;7934;48.710;9.024;2023-08-31T06:16:11;11.87;;;6.17;;
15667;SDS011;7934;48.710;9.024;2023-08-31T06:18:38;7.33;;;5.53;;
15667;SDS011;7934;48.710;9.024;2023-08-31T06:21:05;10.00;;;6.50;;
15667;SDS011;7934;48.710;9.024;2023-08-31T06:23:32;6.87;;;5.53;;
15667;SDS011;7934;48.710;9.024;2023-08-31T06:25:59;11.10;;;5.97;;
15667;SDS011;7934;48.710;9.024;2023-08-31T06:28:31;13.33;;;5.50;;
15667;SDS011;7934;48.710;9.024;2023-08-31T06:30:59;7.80;;;5.83;;
15667;SDS011;7934;48.710;9.024;2023-08-31T06:33:27;13.53;;;6.47;;
15667;SDS011;7934;48.710;9.024;2023-08-31T06:35:54;6.47;;;5.87;;
15667;SDS011;7934;48.710;9.024;2023-08-31T06:38:22;8.00;;;6.40;;
15667;SDS011;7934;48.710;9.024;2023-08-31T06:40:49;9.37;;;6.20;;
15667;SDS011;7934;48.710;9.024;2023-08-31T06:43:18;7.83;;;6.40;;
15667;SDS011;7934;48.710;9.024;2023-08-31T06:45:45;13.83;;;6.80;;
15667;SDS011;7934;48.710;9.024;2023-08-31T06:48:12;9.87;;;6.77;;
15667;SDS011;7934;48.710;9.024;2023-08-31T06:50:41;12.30;;;6.60;;
15667;SDS011;7934;48.710;9.024;2023-08-31T06:53:09;9.93;;;6.00;;
15667;SDS011;7934;48.710;9.024;2023-08-31T06:55:36;5.97;;;4.47;;
15667;SDS011;7934;48.710;9.024;2023-08-31T06:58:04;6.33;;;4.40;;
15667;SDS011;7934;48.710;9.024;2023-08-31T07:00:31;4.97;;;3.57;;
15667;SDS011;7934;48.710;9.024;2023-08-31T07:02:59;7.17;;;5.33;;
15667;SDS011;7934;48.710;9.024;2023-08-31T07:05:26;4.03;;;2.90;;
15667;SDS011;7934;48.710;9.024;2023-08-31T07:07:56;5.97;;;2.90;;
15667;SDS011;7934;48.710;9.024;2023-08-31T07:10:23;3.27;;;2.20;;
15667;SDS011;7934;48.710;9.024;2023-08-31T07:12:50;3.30;;;2.00;;
15667;SDS011;7934;48.710;9.024;2023-08-31T07:15:17;6.27;;;2.27;;
15667;SDS011;7934;48.710;9.024;2023-08-31T07:17:44;2.97;;;2.17;;
15667;SDS011;7934;48.710;9.024;2023-08-31T07:20:12;7.43;;;2.30;;
15667;SDS011;7934;48.710;9.024;2023-08-31T07:22:39;5.27;;;2.00;;
15667;SDS011;7934;48.710;9.024;2023-08-31T07:25:08;63.07;;;4.07;;
15667;SDS011;7934;48.710;9.024;2023-08-31T07:27:35;190.87;;;43.50;;
15667;SDS011;7934;48.710;9.024;2023-08-31T07:30:03;54.70;;;32.73;;
15667;SDS011;7934;48.710;9.024;2023-08-31T07:32:30;305.00;;;18.43;;
15667;SDS011;7934;48.710;9.024;2023-08-31T07:34:57;3.90;;;1.60;;
15667;SDS011;7934;48.710;9.024;2023-08-31T07:37:25;3.40;;;1.83;;
15667;SDS011;7934;48.710;9.024;2023-08-31T07:39:52;2.93;;;2.13;;
15667;SDS011;7934;48.710;9.024;2023-08-31T07:42:24;2.83;;;2.00;;
15667;SDS011;7934;48.710;9.024;2023-08-31T07:44:51;2.50;;;1.83;;
15667;SDS011;7934;48.710;9.024;2023-08-31T07:47:18;5.50;;;1.97;;
15667;SDS011;7934;48.710;9.024;2023-08-31T07:49:45;3.17;;;2.27;;
15667;SDS011;7934;48.710;9.024;2023-08-31T07:54:41;3.33;;;2.13;;
15667;SDS011;7934;48.710;9.024;2023-08-31T07:57:08;3.93;;;2.00;;
15667;SDS011;7934;48.710;9.024;2023-08-31T07:59:36;2.63;;;1.70;;
15667;SDS011;7934;48.710;9.024;2023-08-31T08:02:04;6.67;;;2.27;;
15667;SDS011;7934;48.710;9.024;2023-08-31T08:04:31;4.00;;;1.60;;
15667;SDS011;7934;48.710;9.024;2023-08-31T08:06:59;3.60;;;1.80;;
15667;SDS011;7934;48.710;9.024;2023-08-31T08:09:27;6.23;;;2.10;;
15667;SDS011;7934;48.710;9.024;2023-08-31T08:11:54;6.83;;;2.10;;
15667;SDS011;7934;48.710;9.024;2023-08-31T08:14:22;5.07;;;1.80;;
15667;SDS011;7934;48.710;9.024;2023-08-31T08:16:51;2.20;;;1.70;;
15667;SDS011;7934;48.710;9.024;2023-08-31T08:19:32;1.70;;;1.60;;
15667;SDS011;7934;48.710;9.024;2023-08-31T08:21:59;3.30;;;2.10;;
15667;SDS011;7934;48.710;9.024;2023-08-31T08:24:26;2.30;;;1.90;;
15667;SDS011;7934;48.710;9.024;2023-08-31T08:26:53;2.33;;;2.00;;
15667;SDS011;7934;48.710;9.024;2023-08-31T08:29:21;2.80;;;1.50;;
15667;SDS011;7934;48.710;9.024;2023-08-31T08:31:48;2.17;;;1.97;;
15667;SDS011;7934;48.710;9.024;2023-08-31T08:34:16;2.50;;;2.00;;
15667;SDS011;7934;48.710;9.024;2023-08-31T08:36:44;3.67;;;1.77;;
15667;SDS011;7934;48.710;9.024;2023-08-31T08:39:11;3.23;;;1.93;;
15667;SDS011;7934;48.710;9.024;2023-08-31T08:41:38;2.17;;;1.90;;
15667;SDS011;7934;48.710;9.024;2023-08-31T08:44:06;3.80;;;1.73;;
15667;SDS011;7934;48.710;9.024;2023-08-31T08:46:34;120.13;;;5.90;;
15667;SDS011;7934;48.710;9.024;2023-08-31T08:49:01;2.70;;;1.93;;
15667;SDS011;7934;48.710;9.024;2023-08-31T08:51:34;5.97;;;2.20;;
15667;SDS011;7934;48.710;9.024;2023-08-31T08:54:01;69.07;;;5.80;;
15667;SDS011;7934;48.710;9.024;2023-08-31T08:56:36;3.70;;;2.10;;
15667;SDS011;7934;48.710;9.024;2023-08-31T08:59:04;3.17;;;1.80;;
15667;SDS011;7934;48.710;9.024;2023-08-31T09:01:33;3.57;;;2.17;;
15667;SDS011;7934;48.710;9.024;2023-08-31T09:04:05;3.80;;;1.97;;
15667;SDS011;7934;48.710;9.024;2023-08-31T09:06:36;3.83;;;2.10;;
15667;SDS011;7934;48.710;9.024;2023-08-31T09:09:04;4.33;;;1.93;;
15667;SDS011;7934;48.710;9.024;2023-08-31T09:11:35;4.07;;;2.20;;
15667;SDS011;7934;48.710;9.024;2023-08-31T09:14:13;3.67;;;2.07;;
15667;SDS011;7934;48.710;9.024;2023-08-31T09:16:54;4.07;;;2.10;;
15667;SDS011;7934;48.710;9.024;2023-08-31T09:19:35;2.83;;;1.60;;
15667;SDS011;7934;48.710;9.024;2023-08-31T09:22:18;2.53;;;1.83;;
15667;SDS011;7934;48.710;9.024;2023-08-31T09:24:49;2.93;;;1.90;;
15667;SDS011;7934;48.710;9.024;2023-08-31T09:27:17;2.63;;;1.90;;
15667;SDS011;7934;48.710;9.024;2023-08-31T09:29:47;4.13;;;2.33;;
15667;SDS011;7934;48.710;9.024;2023-08-31T09:32:15;4.47;;;2.00;;
15667;SDS011;7934;48.710;9.024;2023-08-31T09:34:43;3.50;;;1.83;;
15667;SDS011;7934;48.710;9.024;2023-08-31T09:37:10;5.73;;;2.63;;
15667;SDS011;7934;48.710;9.024;2023-08-31T09:39:40;2.30;;;1.90;;
15667;SDS011;7934;48.710;9.024;2023-08-31T09:42:07;2.40;;;2.20;;
15667;SDS011;7934;48.710;9.024;2023-08-31T09:44:34;3.90;;;2.50;;
15667;SDS011;7934;48.710;9.024;2023-08-31T09:47:06;4.43;;;2.20;;
15667;SDS011;7934;48.710;9.024;2023-08-31T09:49:34;3.17;;;2.13;;
15667;SDS011;7934;48.710;9.024;2023-08-31T09:52:02;4.30;;;2.10;;
15667;SDS011;7934;48.710;9.024;2023-08-31T09:54:31;3.07;;;2.50;;
15667;SDS011;7934;48.710;9.024;2023-08-31T09:59:44;3.67;;;2.10;;
15667;SDS011;7934;48.710;9.024;2023-08-31T10:02:12;4.63;;;1.90;;
15667;SDS011;7934;48.710;9.024;2023-08-31T10:04:40;3.43;;;2.00;;
15667;SDS011;7934;48.710;9.024;2023-08-31T10:07:08;2.80;;;1.80;;
15667;SDS011;7934;48.710;9.024;2023-08-31T10:09:36;2.43;;;1.80;;
15667;SDS011;7934;48.710;9.024;2023-08-31T10:12:03;6.37;;;2.63;;
15667;SDS011;7934;48.710;9.024;2023-08-31T10:17:21;2.93;;;2.40;;
15667;SDS011;7934;48.710;9.024;2023-08-31T10:19:49;3.17;;;2.33;;
15667;SDS011;7934;48.710;9.024;2023-08-31T10:22:17;6.50;;;2.43;;
15667;SDS011;7934;48.710;9.024;2023-08-31T10:24:56;3.97;;;2.10;;
15667;SDS011;7934;48.710;9.024;2023-08-31T10:27:23;4.57;;;2.07;;
15667;SDS011;7934;48.710;9.024;2023-08-31T10:29:51;2.77;;;2.37;;
15667;SDS011;7934;48.710;9.024;2023-08-31T10:32:18;7.50;;;2.47;;
15667;SDS011;7934;48.710;9.024;2023-08-31T10:37:31;3.73;;;1.97;;
15667;SDS011;7934;48.710;9.024;2023-08-31T10:40:08;3.23;;;2.20;;
15667;SDS011;7934;48.710;9.024;2023-08-31T10:42:46;3.70;;;2.43;;
15667;SDS011;7934;48.710;9.024;2023-08-31T10:45:14;5.17;;;2.37;;
15667;SDS011;7934;48.710;9.024;2023-08-31T10:47:41;3.43;;;1.93;;
15667;SDS011;7934;48.710;9.024;2023-08-31T10:50:19;4.83;;;2.13;;
15667;SDS011;7934;48.710;9.024;2023-08-31T10:52:50;6.23;;;2.67;;
15667;SDS011;7934;48.710;9.024;2023-08-31T10:55:17;4.83;;;2.50;;
15667;SDS011;7934;48.710;9.024;2023-08-31T10:57:48;3.23;;;2.10;;
15667;SDS011;7934;48.710;9.024;2023-08-31T11:00:20;3.53;;;2.10;;
15667;SDS011;7934;48.710;9.024;2023-08-31T11:03:05;5.70;;;2.23;;
15667;SDS011;7934;48.710;9.024;2023-08-31T11:05:33;4.60;;;2.23;;
15667;SDS011;7934;48.710;9.024;2023-08-31T11:08:00;4.63;;;2.27;;
15667;SDS011;7934;48.710;9.024;2023-08-31T11:10:28;4.83;;;2.03;;
15667;SDS011;7934;48.710;9.024;2023-08-31T11:12:55;4.90;;;2.30;;
15667;SDS011;7934;48.710;9.024;2023-08-31T11:15:25;2.03;;;1.87;;
15667;SDS011;7934;48.710;9.024;2023-08-31T11:17:53;4.03;;;2.27;;
15667;SDS011;7934;48.710;9.024;2023-08-31T11:20:25;4.73;;;1.83;;
15667;SDS011;7934;48.710;9.024;2023-08-31T11:22:53;6.97;;;2.27;;
15667;SDS011;7934;48.710;9.024;2023-08-31T11:25:23;2.93;;;1.63;;
15667;SDS011;7934;48.710;9.024;2023-08-31T11:27:54;5.43;;;2.10;;
15667;SDS011;7934;48.710;9.024;2023-08-31T11:30:31;4.40;;;2.10;;
15667;SDS011;7934;48.710;9.024;2023-08-31T11:33:01;2.40;;;2.10;;
15667;SDS011;7934;48.710;9.024;2023-08-31T11:35:32;4.33;;;2.23;;
15667;SDS011;7934;48.710;9.024;2023-08-31T11:38:00;2.63;;;2.40;;
15667;SDS011;7934;48.710;9.024;2023-08-31T11:40:29;3.27;;;2.33;;
15667;SDS011;7934;48.710;9.024;2023-08-31T11:42:56;4.27;;;2.07;;
15667;SDS011;7934;48.710;9.024;2023-08-31T11:45:25;3.67;;;2.20;;
15667;SDS011;7934;48.710;9.024;2023-08-31T11:47:52;4.30;;;2.40;;
15667;SDS011;7934;48.710;9.024;2023-08-31T11:50:20;3.90;;;2.10;;
15667;SDS011;7934;48.710;9.024;2023-08-31T11:52:52;2.27;;;2.07;;
15667;SDS011;7934;48.710;9.024;2023-08-31T11:55:20;5.73;;;2.40;;
15667;SDS011;7934;48.710;9.024;2023-08-31T11:57:48;4.53;;;2.00;;
15667;SDS011;7934;48.710;9.024;2023-08-31T12:00:16;2.83;;;2.20;;
15667;SDS011;7934;48.710;9.024;2023-08-31T12:02:44;3.70;;;2.23;;
15667;SDS011;7934;48.710;9.024;2023-08-31T12:05:17;2.70;;;2.20;;
15667;SDS011;7934;48.710;9.024;2023-08-31T12:07:44;3.37;;;2.33;;
15667;SDS011;7934;48.710;9.024;2023-08-31T12:10:14;4.50;;;2.13;;
15667;SDS011;7934;48.710;9.024;2023-08-31T12:12:41;4.73;;;2.30;;
15667;SDS011;7934;48.710;9.024;2023-08-31T12:15:08;2.83;;;2.30;;
15667;SDS011;7934;48.710;9.024;2023-08-31T12:17:37;4.73;;;2.10;;
15667;SDS011;7934;48.710;9.024;2023-08-31T12:20:05;2.23;;;1.97;;
15667;SDS011;7934;48.710;9.024;2023-08-31T12:22:35;5.37;;;2.17;;
15667;SDS011;7934;48.710;9.024;2023-08-31T12:25:02;4.17;;;2.57;;
15667;SDS011;7934;48.710;9.024;2023-08-31T12:27:32;3.80;;;2.00;;
15667;SDS011;7934;48.710;9.024;2023-08-31T12:29:59;2.23;;;1.97;;
15667;SDS011;7934;48.710;9.024;2023-08-31T12:32:26;3.67;;;1.90;;
15667;SDS011;7934;48.710;9.024;2023-08-31T12:34:53;4.20;;;2.50;;
15667;SDS011;7934;48.710;9.024;2023-08-31T12:37:21;3.83;;;2.13;;
15667;SDS011;7934;48.710;9.024;2023-08-31T12:39:48;3.17;;;2.23;;
15667;SDS011;7934;48.710;9.024;2023-08-31T12:42:16;2.50;;;2.30;;
15667;SDS011;7934;48.710;9.024;2023-08-31T12:44:44;2.70;;;2.40;;
15667;SDS011;7934;48.710;9.024;2023-08-31T12:47:12;2.40;;;2.10;;
15667;SDS011;7934;48.710;9.024;2023-08-31T12:49:39;2.83;;;1.97;;
15667;SDS011;7934;48.710;9.024;2023-08-31T12:52:06;3.77;;;2.40;;
15667;SDS011;7934;48.710;9.024;2023-08-31T12:54:34;4.23;;;2.07;;
15667;SDS011;7934;48.710;9.024;2023-08-31T12:57:01;3.60;;;1.80;;
15667;SDS011;7934;48.710;9.024;2023-08-31T12:59:30;5.43;;;2.70;;
15667;SDS011;7934;48.710;9.024;2023-08-31T13:01:58;3.97;;;2.00;;
15667;SDS011;7934;48.710;9.024;2023-08-31T13:04:28;4.20;;;2.10;;
15667;SDS011;7934;48.710;9.024;2023-08-31T13:06:55;4.93;;;2.23;;
15667;SDS011;7934;48.710;9.024;2023-08-31T13:09:23;2.40;;;2.20;;
15667;SDS011;7934;48.710;9.024;2023-08-31T13:11:53;2.80;;;2.23;;
15667;SDS011;7934;48.710;9.024;2023-08-31T13:14:20;5.50;;;2.70;;
15667;SDS011;7934;48.710;9.024;2023-08-31T13:19:55;8.03;;;2.17;;
15667;SDS011;7934;48.710;9.024;2023-08-31T13:22:41;3.80;;;2.37;;
15667;SDS011;7934;48.710;9.024;2023-08-31T13:25:23;3.83;;;2.10;;
15667;SDS011;7934;48.710;9.024;2023-08-31T13:28:05;3.03;;;2.00;;
15667;SDS011;7934;48.710;9.024;2023-08-31T13:30:34;2.67;;;2.10;;
15667;SDS011;7934;48.710;9.024;2023-08-31T13:33:02;3.50;;;1.77;;
15667;SDS011;7934;48.710;9.024;2023-08-31T13:35:47;4.43;;;2.07;;
15667;SDS011;7934;48.710;9.024;2023-08-31T13:38:14;2.07;;;1.93;;
15667;SDS011;7934;48.710;9.024;2023-08-31T13:40:43;2.07;;;1.83;;
15667;SDS011;7934;48.710;9.024;2023-08-31T13:43:10;3.13;;;2.10;;
15667;SDS011;7934;48.710;9.024;2023-08-31T13:45:37;3.27;;;2.07;;
15667;SDS011;7934;48.710;9.024;2023-08-31T13:48:05;3.00;;;2.30;;
15667;SDS011;7934;48.710;9.024;2023-08-31T13:50:32;7.43;;;2.33;;
15667;SDS011;7934;48.710;9.024;2023-08-31T13:53:01;4.37;;;2.30;;
15667;SDS011;7934;48.710;9.024;2023-08-31T13:55:28;3.43;;;2.20;;
15667;SDS011;7934;48.710;9.024;2023-08-31T13:58:03;3.17;;;2.20;;
15667;SDS011;7934;48.710;9.024;2023-08-31T14:00:33;2.77;;;2.43;;
15667;SDS011;7934;48.710;9.024;2023-08-31T14:03:03;5.50;;;2.43;;
15667;SDS011;7934;48.710;9.024;2023-08-31T14:05:34;7.33;;;2.33;;
15667;SDS011;7934;48.710;9.024;2023-08-31T14:08:03;3.23;;;2.17;;
15667;SDS011;7934;48.710;9.024;2023-08-31T14:10:30;2.27;;;1.93;;
15667;SDS011;7934;48.710;9.024;2023-08-31T14:13:00;2.77;;;2.33;;
15667;SDS011;7934;48.710;9.024;2023-08-31T14:15:32;6.43;;;2.33;;
15667;SDS011;7934;48.710;9.024;2023-08-31T14:18:13;5.03;;;2.20;;
15667;SDS011;7934;48.710;9.024;2023-08-31T14:20:40;8.87;;;2.50;;
15667;SDS011;7934;48.710;9.024;2023-08-31T14:23:13;2.73;;;2.17;;
15667;SDS011;7934;48.710;9.024;2023-08-31T14:25:42;4.83;;;2.20;;
15667;SDS011;7934;48.710;9.024;2023-08-31T14:28:10;4.87;;;2.00;;
15667;SDS011;7934;48.710;9.024;2023-08-31T14:30:41;8.67;;;2.83;;
15667;SDS011;7934;48.710;9.024;2023-08-31T14:33:09;3.30;;;2.10;;
15667;SDS011;7934;48.710;9.024;2023-08-31T14:35:40;7.13;;;2.57;;
15667;SDS011;7934;48.710;9.024;2023-08-31T14:38:10;4.33;;;2.63;;
15667;SDS011;7934;48.710;9.024;2023-08-31T14:40:39;3.67;;;2.73;;
15667;SDS011;7934;48.710;9.024;2023-08-31T14:43:07;4.20;;;2.40;;
15667;SDS011;7934;48.710;9.024;2023-08-31T14:45:36;2.57;;;2.07;;
15667;SDS011;7934;48.710;9.024;2023-08-31T14:48:19;2.90;;;2.00;;
15667;SDS011;7934;48.710;9.024;2023-08-31T14:50:46;5.37;;;2.30;;
15667;SDS011;7934;48.710;9.024;2023-08-31T14:53:14;4.90;;;2.43;;
15667;SDS011;7934;48.710;9.024;2023-08-31T14:55:48;5.67;;;2.20;;
15667;SDS011;7934;48.710;9.024;2023-08-31T14:58:16;2.93;;;2.30;;
15667;SDS011;7934;48.710;9.024;2023-08-31T15:00:43;5.57;;;2.43;;
15667;SDS011;7934;48.710;9.024;2023-08-31T15:03:11;2.70;;;2.17;;
15667;SDS011;7934;48.710;9.024;2023-08-31T15:05:52;4.60;;;2.10;;
15667;SDS011;7934;48.710;9.024;2023-08-31T15:08:21;4.47;;;1.90;;
15667;SDS011;7934;48.710;9.024;2023-08-31T15:10:50;4.30;;;2.83;;
15667;SDS011;7934;48.710;9.024;2023-08-31T15:13:17;5.53;;;2.40;;
15667;SDS011;7934;48.710;9.024;2023-08-31T15:15:47;2.83;;;2.23;;
15667;SDS011;7934;48.710;9.024;2023-08-31T15:18:14;3.97;;;2.53;;
15667;SDS011;7934;48.710;9.024;2023-08-31T15:23:54;4.17;;;2.43;;
15667;SDS011;7934;48.710;9.024;2023-08-31T15:26:23;5.33;;;2.47;;